Portada
METAR-TAF:

METAR-TAF

Aeropuertos :

Katima Mulilo, Namibia

latitud: 17-38-04S, longitud: 024-10-36E, altitud: 985 m

Observación

El informe se hizo hace 59 minutos, a las 05:00 UTC
Viento 2 kt del norte-noreste
Temperatura 6°C
Humedad 65%
Presión 1022 hPa

METAR: FYKM 200500Z AUTO 02002KT //// // ////// 06/00 Q1022

Hora: 07:59 (05:59 UTC)

Pronóstico

El informe se hizo hace 59 minutos, a las 05:00 UTC
Pronóstico válido del 20 a las 06 UTC al 20 a las 15 UTC
Viento kt del norte
Visibilidad 10 km o más
sin nubes por debajo de 1500 m y sin presencia de cumulonimbus.
Evolucionando progresivamente
del 20 a las 07 UTC al 20 a las 09 UTC
Viento 10 kt del este

TAF: FYKM 200500Z 2006/2015 00000KT CAVOK BECMG 2007/2009 08010KT

Observaciones y pronósticos meteorológicos de más de 4000 aeropuertos (mensajes METAR y TAF).

Los puntos amarillos y rojos representan las estaciones disponibles.

Ponga el ratón en el punto deseado para ver el nombre de la estación.

Haga clic para ver las observaciones y los pronósticos meteorológicos.

Para cambiar el mapa : haga clic en los botones verdes con una cruz de color negro para hacer un zoom, en el botón verde con un guión para alejar o en las flechas verdes para mapas adyacentes.


METAR-TAF: